sensor_id;sensor_type;location;lat;lon;timestamp;pressure;altitude;pressure_sealevel;temperature;humidity
29045;BME280;16133;49.486;12.176;2022-08-19T00:00:28;96540.03;;;18.20;100.00
29045;BME280;16133;49.486;12.176;2022-08-19T00:02:53;96527.41;;;18.21;100.00
29045;BME280;16133;49.486;12.176;2022-08-19T00:05:20;96537.97;;;18.27;100.00
29045;BME280;16133;49.486;12.176;2022-08-19T00:07:47;96550.09;;;18.30;100.00
29045;BME280;16133;49.486;12.176;2022-08-19T00:10:14;96541.41;;;18.23;100.00
29045;BME280;16133;49.486;12.176;2022-08-19T00:12:40;96545.97;;;18.22;100.00
29045;BME280;16133;49.486;12.176;2022-08-19T00:15:08;96543.28;;;18.22;100.00
29045;BME280;16133;49.486;12.176;2022-08-19T00:17:37;96547.09;;;18.26;100.00
29045;BME280;16133;49.486;12.176;2022-08-19T00:20:03;96547.59;;;18.23;100.00
29045;BME280;16133;49.486;12.176;2022-08-19T00:22:29;96545.09;;;18.17;100.00
29045;BME280;16133;49.486;12.176;2022-08-19T00:24:58;96537.19;;;18.10;100.00
29045;BME280;16133;49.486;12.176;2022-08-19T00:27:23;96536.56;;;18.03;100.00
29045;BME280;16133;49.486;12.176;2022-08-19T00:29:48;96547.31;;;18.03;100.00
29045;BME280;16133;49.486;12.176;2022-08-19T00:32:14;96537.56;;;17.97;100.00
29045;BME280;16133;49.486;12.176;2022-08-19T00:34:39;96540.00;;;17.98;100.00
29045;BME280;16133;49.486;12.176;2022-08-19T00:37:05;96525.19;;;17.96;100.00
29045;BME280;16133;49.486;12.176;2022-08-19T00:39:30;96522.59;;;18.01;100.00
29045;BME280;16133;49.486;12.176;2022-08-19T00:41:55;96532.19;;;17.97;100.00
29045;BME280;16133;49.486;12.176;2022-08-19T00:44:25;96529.94;;;17.89;100.00
29045;BME280;16133;49.486;12.176;2022-08-19T00:46:52;96531.00;;;17.88;100.00
29045;BME280;16133;49.486;12.176;2022-08-19T00:52:35;96547.31;;;17.86;100.00
29045;BME280;16133;49.486;12.176;2022-08-19T00:55:04;96548.63;;;17.84;100.00
29045;BME280;16133;49.486;12.176;2022-08-19T00:57:35;96548.56;;;17.79;100.00
29045;BME280;16133;49.486;12.176;2022-08-19T01:00:05;96548.50;;;17.74;100.00
29045;BME280;16133;49.486;12.176;2022-08-19T01:02:32;96537.75;;;17.74;100.00
29045;BME280;16133;49.486;12.176;2022-08-19T01:04:59;96554.00;;;17.67;100.00
29045;BME280;16133;49.486;12.176;2022-08-19T01:07:25;96561.41;;;17.60;100.00
29045;BME280;16133;49.486;12.176;2022-08-19T01:09:50;96576.59;;;17.54;100.00
29045;BME280;16133;49.486;12.176;2022-08-19T01:12:16;96581.97;;;17.54;100.00
29045;BME280;16133;49.486;12.176;2022-08-19T01:14:42;96579.28;;;17.54;100.00
29045;BME280;16133;49.486;12.176;2022-08-19T01:17:09;96574.97;;;17.53;100.00
29045;BME280;16133;49.486;12.176;2022-08-19T01:19:39;96564.81;;;17.55;100.00
29045;BME280;16133;49.486;12.176;2022-08-19T01:22:12;96569.72;;;17.58;100.00
29045;BME280;16133;49.486;12.176;2022-08-19T01:24:40;96557.44;;;17.62;100.00
29045;BME280;16133;49.486;12.176;2022-08-19T01:27:06;96565.81;;;17.66;100.00
29045;BME280;16133;49.486;12.176;2022-08-19T01:29:32;96560.19;;;17.67;100.00
29045;BME280;16133;49.486;12.176;2022-08-19T01:31:58;96561.34;;;17.72;100.00
29045;BME280;16133;49.486;12.176;2022-08-19T01:34:25;96553.38;;;17.77;100.00
29045;BME280;16133;49.486;12.176;2022-08-19T01:36:50;96530.13;;;17.65;100.00
29045;BME280;16133;49.486;12.176;2022-08-19T01:39:19;96561.09;;;17.90;100.00
29045;BME280;16133;49.486;12.176;2022-08-19T01:41:46;96553.91;;;17.95;100.00
29045;BME280;16133;49.486;12.176;2022-08-19T01:44:14;96549.69;;;17.99;100.00
29045;BME280;16133;49.486;12.176;2022-08-19T01:46:40;96551.84;;;18.02;100.00
29045;BME280;16133;49.486;12.176;2022-08-19T01:49:06;96555.94;;;18.05;100.00
29045;BME280;16133;49.486;12.176;2022-08-19T01:51:33;96554.38;;;18.09;100.00
29045;BME280;16133;49.486;12.176;2022-08-19T01:53:58;96556.00;;;18.10;100.00
29045;BME280;16133;49.486;12.176;2022-08-19T01:56:23;96548.75;;;18.10;100.00
29045;BME280;16133;49.486;12.176;2022-08-19T01:58:54;96555.50;;;18.13;100.00
29045;BME280;16133;49.486;12.176;2022-08-19T02:01:20;96566.81;;;18.15;100.00
29045;BME280;16133;49.486;12.176;2022-08-19T02:03:46;96564.69;;;18.17;100.00
29045;BME280;16133;49.486;12.176;2022-08-19T02:06:12;96576.81;;;18.20;100.00
29045;BME280;16133;49.486;12.176;2022-08-19T02:08:38;96575.50;;;18.22;100.00
29045;BME280;16133;49.486;12.176;2022-08-19T02:11:04;96579.81;;;18.23;100.00
29045;BME280;16133;49.486;12.176;2022-08-19T02:13:30;96580.63;;;18.24;100.00
29045;BME280;16133;49.486;12.176;2022-08-19T02:15:56;96576.88;;;18.25;100.00
29045;BME280;16133;49.486;12.176;2022-08-19T02:18:21;96594.59;;;18.26;100.00
29045;BME280;16133;49.486;12.176;2022-08-19T02:20:47;96599.16;;;18.25;100.00
29045;BME280;16133;49.486;12.176;2022-08-19T02:23:14;96605.63;;;18.24;100.00
29045;BME280;16133;49.486;12.176;2022-08-19T02:25:40;96611.53;;;18.26;100.00
29045;BME280;16133;49.486;12.176;2022-08-19T02:28:06;96619.03;;;18.24;100.00
29045;BME280;16133;49.486;12.176;2022-08-19T02:30:32;96621.16;;;18.22;100.00
29045;BME280;16133;49.486;12.176;2022-08-19T02:32:57;96619.19;;;18.17;100.00
29045;BME280;16133;49.486;12.176;2022-08-19T02:35:23;96616.69;;;18.11;100.00
29045;BME280;16133;49.486;12.176;2022-08-19T02:48:09;96612.41;;;17.77;100.00
29045;BME280;16133;49.486;12.176;2022-08-19T02:50:38;96577.28;;;17.61;100.00
29045;BME280;16133;49.486;12.176;2022-08-19T02:53:04;96601.66;;;17.77;100.00
29045;BME280;16133;49.486;12.176;2022-08-19T02:55:30;96600.63;;;17.78;100.00
29045;BME280;16133;49.486;12.176;2022-08-19T02:57:56;96600.69;;;17.83;100.00
29045;BME280;16133;49.486;12.176;2022-08-19T03:00:22;96581.09;;;17.82;100.00
29045;BME280;16133;49.486;12.176;2022-08-19T03:02:48;96566.06;;;17.81;100.00
29045;BME280;16133;49.486;12.176;2022-08-19T03:05:14;96574.50;;;17.90;100.00
29045;BME280;16133;49.486;12.176;2022-08-19T03:07:39;96561.50;;;17.82;100.00
29045;BME280;16133;49.486;12.176;2022-08-19T03:10:05;96570.75;;;17.91;100.00
29045;BME280;16133;49.486;12.176;2022-08-19T03:12:31;96556.28;;;17.92;100.00
29045;BME280;16133;49.486;12.176;2022-08-19T03:14:56;96540.25;;;17.97;100.00
29045;BME280;16133;49.486;12.176;2022-08-19T03:17:21;96549.44;;;18.01;100.00
29045;BME280;16133;49.486;12.176;2022-08-19T03:19:47;96549.91;;;17.98;100.00
29045;BME280;16133;49.486;12.176;2022-08-19T03:22:12;96544.41;;;17.88;100.00
29045;BME280;16133;49.486;12.176;2022-08-19T03:24:38;96535.81;;;17.86;100.00
29045;BME280;16133;49.486;12.176;2022-08-19T03:27:03;96551.91;;;17.86;100.00
29045;BME280;16133;49.486;12.176;2022-08-19T03:29:30;96570.38;;;17.82;100.00
29045;BME280;16133;49.486;12.176;2022-08-19T03:31:58;96569.47;;;17.77;100.00
29045;BME280;16133;49.486;12.176;2022-08-19T03:34:25;96571.09;;;17.78;100.00
29045;BME280;16133;49.486;12.176;2022-08-19T03:36:53;96572.16;;;17.77;100.00
29045;BME280;16133;49.486;12.176;2022-08-19T03:39:20;96577.19;;;17.90;100.00
29045;BME280;16133;49.486;12.176;2022-08-19T03:41:47;96582.06;;;17.93;100.00
29045;BME280;16133;49.486;12.176;2022-08-19T03:44:17;96584.13;;;17.86;100.00
29045;BME280;16133;49.486;12.176;2022-08-19T03:46:43;96592.81;;;17.93;100.00
29045;BME280;16133;49.486;12.176;2022-08-19T03:49:08;96592.31;;;17.96;100.00
29045;BME280;16133;49.486;12.176;2022-08-19T03:51:37;96602.88;;;18.02;100.00
29045;BME280;16133;49.486;12.176;2022-08-19T03:54:06;96606.38;;;18.03;100.00
29045;BME280;16133;49.486;12.176;2022-08-19T03:56:33;96625.25;;;18.08;100.00
29045;BME280;16133;49.486;12.176;2022-08-19T03:59:00;96617.50;;;18.11;100.00
29045;BME280;16133;49.486;12.176;2022-08-19T04:01:27;96621.31;;;18.15;100.00
29045;BME280;16133;49.486;12.176;2022-08-19T04:03:55;96621.66;;;18.19;100.00
29045;BME280;16133;49.486;12.176;2022-08-19T04:06:23;96625.97;;;18.20;100.00
29045;BME280;16133;49.486;12.176;2022-08-19T04:08:51;96639.13;;;18.22;100.00
29045;BME280;16133;49.486;12.176;2022-08-19T04:11:22;96640.75;;;18.23;100.00
29045;BME280;16133;49.486;12.176;2022-08-19T04:13:49;96666.31;;;18.25;100.00
29045;BME280;16133;49.486;12.176;2022-08-19T04:16:16;96666.88;;;18.27;100.00
29045;BME280;16133;49.486;12.176;2022-08-19T04:18:42;96677.38;;;18.29;100.00
29045;BME280;16133;49.486;12.176;2022-08-19T04:21:08;96682.50;;;18.30;100.00
29045;BME280;16133;49.486;12.176;2022-08-19T04:23:40;96685.75;;;18.32;100.00
29045;BME280;16133;49.486;12.176;2022-08-19T04:26:05;96692.75;;;18.33;100.00
29045;BME280;16133;49.486;12.176;2022-08-19T04:28:31;96699.75;;;18.34;100.00
29045;BME280;16133;49.486;12.176;2022-08-19T04:30:56;96704.81;;;18.31;100.00
29045;BME280;16133;49.486;12.176;2022-08-19T04:33:24;96717.75;;;18.34;100.00
29045;BME280;16133;49.486;12.176;2022-08-19T04:35:52;96717.50;;;18.35;100.00
29045;BME280;16133;49.486;12.176;2022-08-19T04:38:20;96721.31;;;18.39;100.00
29045;BME280;16133;49.486;12.176;2022-08-19T04:40:49;96721.31;;;18.39;100.00
29045;BME280;16133;49.486;12.176;2022-08-19T04:43:36;96724.56;;;18.41;100.00
29045;BME280;16133;49.486;12.176;2022-08-19T04:46:10;96749.06;;;18.45;100.00
29045;BME280;16133;49.486;12.176;2022-08-19T04:48:38;96752.81;;;18.44;100.00
29045;BME280;16133;49.486;12.176;2022-08-19T04:51:10;96771.38;;;18.45;100.00
29045;BME280;16133;49.486;12.176;2022-08-19T04:53:38;96769.28;;;18.47;100.00
29045;BME280;16133;49.486;12.176;2022-08-19T04:56:15;96774.97;;;18.51;100.00
29045;BME280;16133;49.486;12.176;2022-08-19T04:58:43;96768.88;;;18.55;100.00
29045;BME280;16133;49.486;12.176;2022-08-19T05:01:12;96772.69;;;18.59;100.00
29045;BME280;16133;49.486;12.176;2022-08-19T05:03:37;96768.47;;;18.63;100.00
29045;BME280;16133;49.486;12.176;2022-08-19T05:06:08;96767.81;;;18.73;100.00
29045;BME280;16133;49.486;12.176;2022-08-19T05:08:36;96755.00;;;18.80;100.00
29045;BME280;16133;49.486;12.176;2022-08-19T05:11:09;96743.00;;;18.88;100.00
29045;BME280;16133;49.486;12.176;2022-08-19T05:13:34;96742.50;;;18.91;100.00
29045;BME280;16133;49.486;12.176;2022-08-19T05:16:00;96743.09;;;18.93;100.00
29045;BME280;16133;49.486;12.176;2022-08-19T05:18:25;96749.59;;;18.97;100.00
29045;BME280;16133;49.486;12.176;2022-08-19T05:21:12;96764.22;;;19.06;100.00
29045;BME280;16133;49.486;12.176;2022-08-19T05:23:56;96777.31;;;19.19;100.00
29045;BME280;16133;49.486;12.176;2022-08-19T05:26:22;96787.69;;;19.32;100.00
29045;BME280;16133;49.486;12.176;2022-08-19T05:28:48;96784.09;;;19.43;100.00
29045;BME280;16133;49.486;12.176;2022-08-19T05:31:13;96801.63;;;19.68;100.00
29045;BME280;16133;49.486;12.176;2022-08-19T05:33:39;96802.53;;;19.78;100.00
29045;BME280;16133;49.486;12.176;2022-08-19T05:36:05;96813.31;;;19.78;100.00
29045;BME280;16133;49.486;12.176;2022-08-19T05:38:32;96837.81;;;19.77;100.00
29045;BME280;16133;49.486;12.176;2022-08-19T05:40:58;96845.63;;;19.78;100.00
29045;BME280;16133;49.486;12.176;2022-08-19T05:43:23;96847.06;;;19.86;100.00
29045;BME280;16133;49.486;12.176;2022-08-19T05:45:48;96850.50;;;20.03;100.00
29045;BME280;16133;49.486;12.176;2022-08-19T05:48:15;96844.22;;;20.19;100.00
29045;BME280;16133;49.486;12.176;2022-08-19T05:50:42;96847.22;;;20.28;100.00
29045;BME280;16133;49.486;12.176;2022-08-19T05:53:10;96858.91;;;20.33;100.00
29045;BME280;16133;49.486;12.176;2022-08-19T05:55:35;96871.13;;;20.41;100.00
29045;BME280;16133;49.486;12.176;2022-08-19T05:58:03;96881.59;;;20.37;100.00
29045;BME280;16133;49.486;12.176;2022-08-19T06:00:29;96881.28;;;20.34;100.00
29045;BME280;16133;49.486;12.176;2022-08-19T06:02:56;96881.59;;;20.37;100.00
29045;BME280;16133;49.486;12.176;2022-08-19T06:05:24;96872.84;;;20.52;100.00
29045;BME280;16133;49.486;12.176;2022-08-19T06:07:50;96884.34;;;20.69;100.00
29045;BME280;16133;49.486;12.176;2022-08-19T06:10:15;96884.47;;;20.89;100.00
29045;BME280;16133;49.486;12.176;2022-08-19T06:12:41;96877.94;;;21.12;100.00
29045;BME280;16133;49.486;12.176;2022-08-19T06:15:09;96874.91;;;21.40;100.00
29045;BME280;16133;49.486;12.176;2022-08-19T06:17:35;96876.91;;;21.60;100.00
29045;BME280;16133;49.486;12.176;2022-08-19T06:20:03;96885.31;;;21.69;100.00
29045;BME280;16133;49.486;12.176;2022-08-19T06:22:29;96891.50;;;21.64;100.00
29045;BME280;16133;49.486;12.176;2022-08-19T06:24:55;96889.84;;;21.58;100.00
29045;BME280;16133;49.486;12.176;2022-08-19T06:27:21;96889.41;;;21.76;100.00
29045;BME280;16133;49.486;12.176;2022-08-19T06:29:46;96898.22;;;22.04;100.00
29045;BME280;16133;49.486;12.176;2022-08-19T06:32:14;96894.47;;;22.25;100.00
29045;BME280;16133;49.486;12.176;2022-08-19T06:34:40;96894.53;;;22.50;100.00
29045;BME280;16133;49.486;12.176;2022-08-19T06:37:06;96898.66;;;22.78;100.00
29045;BME280;16133;49.486;12.176;2022-08-19T06:39:36;96895.97;;;22.98;100.00
29045;BME280;16133;49.486;12.176;2022-08-19T06:42:04;96893.81;;;23.05;100.00
29045;BME280;16133;49.486;12.176;2022-08-19T06:44:33;96888.94;;;22.97;100.00
29045;BME280;16133;49.486;12.176;2022-08-19T06:47:04;96885.13;;;22.78;100.00
29045;BME280;16133;49.486;12.176;2022-08-19T06:49:31;96884.00;;;22.59;100.00
29045;BME280;16133;49.486;12.176;2022-08-19T06:51:57;96894.53;;;22.45;100.00
29045;BME280;16133;49.486;12.176;2022-08-19T06:54:24;96901.78;;;22.24;100.00
29045;BME280;16133;49.486;12.176;2022-08-19T06:56:50;96899.88;;;22.20;100.00
29045;BME280;16133;49.486;12.176;2022-08-19T06:59:20;96903.69;;;22.29;100.00
29045;BME280;16133;49.486;12.176;2022-08-19T07:01:48;96902.94;;;22.49;100.00
29045;BME280;16133;49.486;12.176;2022-08-19T07:04:16;96912.13;;;22.58;100.00
29045;BME280;16133;49.486;12.176;2022-08-19T07:06:43;96916.53;;;22.69;100.00
29045;BME280;16133;49.486;12.176;2022-08-19T07:09:10;96923.00;;;22.78;97.84
29045;BME280;16133;49.486;12.176;2022-08-19T07:11:36;96922.47;;;22.76;98.46
29045;BME280;16133;49.486;12.176;2022-08-19T07:14:02;96928.69;;;22.76;99.93
29045;BME280;16133;49.486;12.176;2022-08-19T07:16:28;96928.44;;;22.83;100.00
29045;BME280;16133;49.486;12.176;2022-08-19T07:18:57;96926.00;;;22.92;100.00
29045;BME280;16133;49.486;12.176;2022-08-19T07:21:25;96918.72;;;23.02;100.00
29045;BME280;16133;49.486;12.176;2022-08-19T07:23:55;96907.88;;;23.12;96.80
29045;BME280;16133;49.486;12.176;2022-08-19T07:26:33;96904.63;;;23.15;94.64
29045;BME280;16133;49.486;12.176;2022-08-19T07:28:59;96900.31;;;23.14;93.33
29045;BME280;16133;49.486;12.176;2022-08-19T07:31:27;96910.31;;;23.19;93.45
29045;BME280;16133;49.486;12.176;2022-08-19T07:33:54;96911.94;;;23.25;92.95
29045;BME280;16133;49.486;12.176;2022-08-19T07:36:26;96911.94;;;23.25;91.78
29045;BME280;16133;49.486;12.176;2022-08-19T07:38:55;96912.22;;;23.18;93.18
29045;BME280;16133;49.486;12.176;2022-08-19T07:41:23;96904.34;;;23.12;93.57
29045;BME280;16133;49.486;12.176;2022-08-19T07:43:49;96901.66;;;22.97;95.26
29045;BME280;16133;49.486;12.176;2022-08-19T07:46:15;96906.78;;;22.73;96.70
29045;BME280;16133;49.486;12.176;2022-08-19T07:48:42;96901.03;;;22.54;97.93
29045;BME280;16133;49.486;12.176;2022-08-19T07:51:09;96913.97;;;22.32;97.90
29045;BME280;16133;49.486;12.176;2022-08-19T07:53:36;96915.78;;;22.16;98.78
29045;BME280;16133;49.486;12.176;2022-08-19T07:56:03;96916.34;;;22.13;98.93
29045;BME280;16133;49.486;12.176;2022-08-19T07:58:31;96911.94;;;21.92;100.00
29045;BME280;16133;49.486;12.176;2022-08-19T08:00:57;96925.16;;;21.93;100.00
29045;BME280;16133;49.486;12.176;2022-08-19T08:03:22;96923.75;;;21.86;100.00
29045;BME280;16133;49.486;12.176;2022-08-19T08:06:14;96935.84;;;21.78;100.00
29045;BME280;16133;49.486;12.176;2022-08-19T08:08:59;96946.31;;;21.65;100.00
29045;BME280;16133;49.486;12.176;2022-08-19T08:11:42;96943.31;;;21.56;100.00
29045;BME280;16133;49.486;12.176;2022-08-19T08:14:15;96936.72;;;21.42;100.00
29045;BME280;16133;49.486;12.176;2022-08-19T08:16:40;96939.34;;;21.32;100.00
29045;BME280;16133;49.486;12.176;2022-08-19T08:19:07;96934.09;;;21.15;100.00
29045;BME280;16133;49.486;12.176;2022-08-19T08:21:33;96934.25;;;21.04;100.00
29045;BME280;16133;49.486;12.176;2022-08-19T08:23:59;96931.50;;;20.98;100.00
29045;BME280;16133;49.486;12.176;2022-08-19T08:26:24;96932.03;;;20.95;100.00
29045;BME280;16133;49.486;12.176;2022-08-19T08:28:50;96932.84;;;20.96;100.00
29045;BME280;16133;49.486;12.176;2022-08-19T08:31:17;96924.44;;;20.92;100.00
29045;BME280;16133;49.486;12.176;2022-08-19T08:33:44;96920.97;;;20.97;100.00
29045;BME280;16133;49.486;12.176;2022-08-19T08:36:11;96920.31;;;21.12;100.00
29045;BME280;16133;49.486;12.176;2022-08-19T08:38:37;96926.56;;;21.17;100.00
29045;BME280;16133;49.486;12.176;2022-08-19T08:41:35;96925.03;;;21.31;100.00
29045;BME280;16133;49.486;12.176;2022-08-19T08:43:57;96925.41;;;21.45;100.00
29045;BME280;16133;49.486;12.176;2022-08-19T08:48:56;96929.09;;;21.76;100.00
29045;BME280;16133;49.486;12.176;2022-08-19T08:51:37;96926.22;;;21.92;100.00
29045;BME280;16133;49.486;12.176;2022-08-19T08:54:10;96921.75;;;22.13;100.00
29045;BME280;16133;49.486;12.176;2022-08-19T08:56:41;96922.59;;;22.29;100.00
29045;BME280;16133;49.486;12.176;2022-08-19T08:59:15;96926.41;;;22.33;100.00
29045;BME280;16133;49.486;12.176;2022-08-19T09:01:44;96929.44;;;22.52;98.26
29045;BME280;16133;49.486;12.176;2022-08-19T09:04:11;96920.84;;;22.75;96.91
29045;BME280;16133;49.486;12.176;2022-08-19T09:17:01;96906.63;;;24.14;85.46
29045;BME280;16133;49.486;12.176;2022-08-19T09:19:29;96901.63;;;24.37;83.73
29045;BME280;16133;49.486;12.176;2022-08-19T09:21:54;96893.41;;;24.52;82.13
29045;BME280;16133;49.486;12.176;2022-08-19T09:24:20;96906.13;;;24.56;82.00
29045;BME280;16133;49.486;12.176;2022-08-19T09:26:45;96899.69;;;24.81;79.97
29045;BME280;16133;49.486;12.176;2022-08-19T09:29:11;96897.97;;;25.00;79.46
29045;BME280;16133;49.486;12.176;2022-08-19T09:31:36;96893.56;;;25.09;78.63
29045;BME280;16133;49.486;12.176;2022-08-19T09:34:02;96888.31;;;25.18;76.86
29045;BME280;16133;49.486;12.176;2022-08-19T09:36:30;96885.91;;;25.11;76.65
29045;BME280;16133;49.486;12.176;2022-08-19T09:39:03;96882.34;;;25.16;77.26
29045;BME280;16133;49.486;12.176;2022-08-19T09:41:29;96888.47;;;25.32;76.64
29045;BME280;16133;49.486;12.176;2022-08-19T09:43:56;96894.47;;;25.57;75.56
29045;BME280;16133;49.486;12.176;2022-08-19T09:46:27;96895.06;;;25.78;74.47
29045;BME280;16133;49.486;12.176;2022-08-19T09:48:54;96904.09;;;25.97;72.11
29045;BME280;16133;49.486;12.176;2022-08-19T09:51:23;96895.88;;;26.02;72.42
29045;BME280;16133;49.486;12.176;2022-08-19T09:53:50;96903.97;;;26.31;70.50
29045;BME280;16133;49.486;12.176;2022-08-19T09:56:17;96908.03;;;26.52;69.03
29045;BME280;16133;49.486;12.176;2022-08-19T09:58:43;96902.06;;;26.69;67.12
29045;BME280;16133;49.486;12.176;2022-08-19T10:01:15;96904.34;;;26.99;67.44
29045;BME280;16133;49.486;12.176;2022-08-19T10:03:41;96909.72;;;27.37;64.22
29045;BME280;16133;49.486;12.176;2022-08-19T10:06:06;96913.16;;;27.61;62.90
29045;BME280;16133;49.486;12.176;2022-08-19T10:08:35;96917.91;;;27.83;61.67
29045;BME280;16133;49.486;12.176;2022-08-19T10:11:02;96914.47;;;27.91;62.11
29045;BME280;16133;49.486;12.176;2022-08-19T10:13:30;96922.00;;;28.13;61.14
29045;BME280;16133;49.486;12.176;2022-08-19T10:16:05;96920.38;;;28.39;60.12
29045;BME280;16133;49.486;12.176;2022-08-19T10:18:31;96930.88;;;28.45;58.29
29045;BME280;16133;49.486;12.176;2022-08-19T10:21:06;96929.47;;;28.34;59.67
29045;BME280;16133;49.486;12.176;2022-08-19T10:23:33;96940.28;;;28.26;59.33
29045;BME280;16133;49.486;12.176;2022-08-19T10:26:00;96937.84;;;28.11;59.23
29045;BME280;16133;49.486;12.176;2022-08-19T10:28:25;96942.84;;;27.76;59.41
29045;BME280;16133;49.486;12.176;2022-08-19T10:30:51;96942.28;;;27.47;61.38
29045;BME280;16133;49.486;12.176;2022-08-19T10:33:16;96935.41;;;26.98;63.16
29045;BME280;16133;49.486;12.176;2022-08-19T10:35:42;96937.19;;;26.89;62.96
29045;BME280;16133;49.486;12.176;2022-08-19T10:38:07;96936.16;;;26.67;64.43
29045;BME280;16133;49.486;12.176;2022-08-19T10:40:32;96931.88;;;26.79;64.56
29045;BME280;16133;49.486;12.176;2022-08-19T10:42:58;96935.88;;;27.05;64.20
29045;BME280;16133;49.486;12.176;2022-08-19T10:45:23;96938.97;;;27.31;62.64
29045;BME280;16133;49.486;12.176;2022-08-19T10:47:52;96929.78;;;27.46;61.57
29045;BME280;16133;49.486;12.176;2022-08-19T10:50:18;96933.22;;;27.51;60.54
29045;BME280;16133;49.486;12.176;2022-08-19T10:53:08;96927.16;;;27.54;60.69
29045;BME280;16133;49.486;12.176;2022-08-19T10:55:34;96930.59;;;27.60;61.50
29045;BME280;16133;49.486;12.176;2022-08-19T10:58:20;96929.97;;;27.49;60.68
29045;BME280;16133;49.486;12.176;2022-08-19T11:00:52;96931.09;;;27.30;61.63
29045;BME280;16133;49.486;12.176;2022-08-19T11:03:18;96925.41;;;27.13;62.24
29045;BME280;16133;49.486;12.176;2022-08-19T11:05:43;96920.88;;;26.89;62.38
29045;BME280;16133;49.486;12.176;2022-08-19T11:08:09;96917.81;;;26.53;64.06
29045;BME280;16133;49.486;12.176;2022-08-19T11:10:37;96920.75;;;25.91;65.63
29045;BME280;16133;49.486;12.176;2022-08-19T11:13:02;96913.28;;;25.49;67.87
29045;BME280;16133;49.486;12.176;2022-08-19T11:15:28;96903.75;;;25.22;70.27
29045;BME280;16133;49.486;12.176;2022-08-19T11:17:54;96906.84;;;24.72;73.42
29045;BME280;16133;49.486;12.176;2022-08-19T11:20:21;96911.41;;;24.27;75.63
29045;BME280;16133;49.486;12.176;2022-08-19T11:22:46;96916.38;;;24.05;77.66
29045;BME280;16133;49.486;12.176;2022-08-19T11:25:11;96920.81;;;23.66;79.70
29045;BME280;16133;49.486;12.176;2022-08-19T11:27:40;96922.47;;;23.42;82.36
29045;BME280;16133;49.486;12.176;2022-08-19T11:30:10;96921.16;;;23.19;83.64
29045;BME280;16133;49.486;12.176;2022-08-19T11:32:36;96923.56;;;23.05;86.36
29045;BME280;16133;49.486;12.176;2022-08-19T11:35:02;96923.56;;;22.85;88.16
29045;BME280;16133;49.486;12.176;2022-08-19T11:37:27;96913.22;;;22.67;90.38
29045;BME280;16133;49.486;12.176;2022-08-19T11:39:53;96914.31;;;22.61;91.25
29045;BME280;16133;49.486;12.176;2022-08-19T11:42:18;96914.84;;;22.53;92.47
29045;BME280;16133;49.486;12.176;2022-08-19T11:45:02;96925.91;;;22.51;92.55
29045;BME280;16133;49.486;12.176;2022-08-19T11:47:29;96924.00;;;22.52;92.17
29045;BME280;16133;49.486;12.176;2022-08-19T11:49:55;96921.84;;;22.44;93.23
29045;BME280;16133;49.486;12.176;2022-08-19T11:52:21;96916.44;;;22.44;93.50
29045;BME280;16133;49.486;12.176;2022-08-19T11:54:46;96914.78;;;22.42;94.67
29045;BME280;16133;49.486;12.176;2022-08-19T11:57:11;96912.13;;;22.53;94.95
29045;BME280;16133;49.486;12.176;2022-08-19T11:59:37;96908.06;;;22.65;93.74
29045;BME280;16133;49.486;12.176;2022-08-19T12:02:02;96900.84;;;22.76;91.97
29045;BME280;16133;49.486;12.176;2022-08-19T12:04:27;96908.41;;;22.89;90.42
29045;BME280;16133;49.486;12.176;2022-08-19T12:06:53;96907.31;;;22.85;91.16
29045;BME280;16133;49.486;12.176;2022-08-19T12:09:18;96895.41;;;22.81;92.04
29045;BME280;16133;49.486;12.176;2022-08-19T12:11:44;96905.16;;;22.77;93.12
29045;BME280;16133;49.486;12.176;2022-08-19T12:14:11;96896.72;;;22.58;97.90
29045;BME280;16133;49.486;12.176;2022-08-19T12:16:39;96903.97;;;22.32;100.00
29045;BME280;16133;49.486;12.176;2022-08-19T12:19:05;96898.66;;;21.90;100.00
29045;BME280;16133;49.486;12.176;2022-08-19T12:21:34;96899.31;;;21.66;100.00
29045;BME280;16133;49.486;12.176;2022-08-19T12:24:02;96883.56;;;21.42;100.00
29045;BME280;16133;49.486;12.176;2022-08-19T12:26:29;96884.63;;;21.41;100.00
29045;BME280;16133;49.486;12.176;2022-08-19T12:28:56;96875.22;;;21.54;100.00
29045;BME280;16133;49.486;12.176;2022-08-19T12:31:23;96874.81;;;21.77;100.00
29045;BME280;16133;49.486;12.176;2022-08-19T12:33:49;96877.38;;;22.04;100.00
29045;BME280;16133;49.486;12.176;2022-08-19T12:36:16;96883.44;;;22.36;100.00
29045;BME280;16133;49.486;12.176;2022-08-19T12:38:42;96882.16;;;22.74;100.00
29045;BME280;16133;49.486;12.176;2022-08-19T12:41:11;96881.06;;;23.16;100.00
29045;BME280;16133;49.486;12.176;2022-08-19T12:43:37;96882.94;;;23.51;100.00
29045;BME280;16133;49.486;12.176;2022-08-19T12:46:04;96890.50;;;23.59;100.00
29045;BME280;16133;49.486;12.176;2022-08-19T12:48:34;96888.91;;;23.48;100.00
29045;BME280;16133;49.486;12.176;2022-08-19T12:50:59;96887.84;;;23.44;99.86
29045;BME280;16133;49.486;12.176;2022-08-19T12:53:25;96887.28;;;23.37;100.00
29045;BME280;16133;49.486;12.176;2022-08-19T12:55:58;96873.19;;;23.40;100.00
29045;BME280;16133;49.486;12.176;2022-08-19T12:58:25;96887.03;;;23.33;100.00
29045;BME280;16133;49.486;12.176;2022-08-19T13:00:50;96884.03;;;23.24;100.00
29045;BME280;16133;49.486;12.176;2022-08-19T13:03:16;96885.13;;;23.08;100.00
29045;BME280;16133;49.486;12.176;2022-08-19T13:05:41;96881.09;;;22.85;100.00
29045;BME280;16133;49.486;12.176;2022-08-19T13:08:07;96883.53;;;22.72;100.00
29045;BME280;16133;49.486;12.176;2022-08-19T13:10:34;96875.63;;;22.65;100.00